createdAt,value
2019-01-24T00:02:05.702Z,77.45
2019-01-24T00:04:36.601Z,77.45
2019-01-24T00:07:07.356Z,77.59
2019-01-24T00:09:37.986Z,77.75
2019-01-24T00:12:08.794Z,77.41
2019-01-24T00:14:39.763Z,77.74
2019-01-24T00:17:10.395Z,77.76
2019-01-24T00:19:41.135Z,77.85
2019-01-24T00:22:12.113Z,77.41
2019-01-24T00:24:42.986Z,77.41
2019-01-24T00:27:13.611Z,77.19
2019-01-24T00:29:44.557Z,76.89
2019-01-24T00:32:15.573Z,77.01
2019-01-24T00:34:46.266Z,77.00
2019-01-24T00:37:17.200Z,76.92
2019-01-24T00:39:47.810Z,77.03
2019-01-24T00:42:18.616Z,77.07
2019-01-24T00:44:49.309Z,77.03
2019-01-24T00:47:19.866Z,77.02
2019-01-24T00:49:50.395Z,77.04
2019-01-24T00:52:21.049Z,76.98
2019-01-24T00:54:51.667Z,76.94
2019-01-24T00:57:22.208Z,77.19
2019-01-24T00:59:52.855Z,77.13
2019-01-24T01:02:23.525Z,77.11
2019-01-24T01:04:54.127Z,77.18
2019-01-24T01:07:24.792Z,77.17
2019-01-24T01:09:55.430Z,77.05
2019-01-24T01:12:26.999Z,77.09
2019-01-24T01:14:57.968Z,77.11
2019-01-24T01:17:28.609Z,77.04
2019-01-24T01:19:59.138Z,76.95
2019-01-24T01:22:29.790Z,77.13
2019-01-24T01:25:00.391Z,76.96
2019-01-24T01:27:31.017Z,76.91
2019-01-24T01:30:01.956Z,76.98
2019-01-24T01:32:32.651Z,76.99
2019-01-24T01:35:03.305Z,77.08
2019-01-24T01:37:34.254Z,76.86
2019-01-24T01:40:07.350Z,76.77
2019-01-24T01:42:38.304Z,76.88
2019-01-24T01:45:14.491Z,76.74
2019-01-24T01:47:45.400Z,76.94
2019-01-24T01:50:21.706Z,77.01
2019-01-24T01:52:52.360Z,76.79
2019-01-24T01:55:23.115Z,76.74
2019-01-24T01:57:53.759Z,76.89
2019-01-24T02:00:25.509Z,76.74
2019-01-24T02:02:56.157Z,76.90
2019-01-24T02:05:26.770Z,76.74
2019-01-24T02:07:57.385Z,76.97
2019-01-24T02:10:27.992Z,77.01
2019-01-24T02:12:58.962Z,76.95
2019-01-24T02:15:30.177Z,77.06
2019-01-24T02:18:01.399Z,77.10
2019-01-24T02:20:32.650Z,77.04
2019-01-24T02:23:05.042Z,77.14
2019-01-24T02:25:35.846Z,77.07
2019-01-24T02:28:06.616Z,77.00
2019-01-24T02:30:37.835Z,77.03
2019-01-24T02:33:09.112Z,77.02
2019-01-24T02:35:40.627Z,77.20
2019-01-24T02:38:11.795Z,77.15
2019-01-24T02:40:43.075Z,77.20
2019-01-24T02:43:14.156Z,76.89
2019-01-24T02:45:44.852Z,76.92
2019-01-24T02:48:16.665Z,77.10
2019-01-24T02:50:47.527Z,76.94
2019-01-24T02:53:18.684Z,76.96
2019-01-24T02:55:49.819Z,77.25
2019-01-24T02:58:22.711Z,77.06
2019-01-24T03:00:53.991Z,77.05
2019-01-24T03:03:24.851Z,77.01
2019-01-24T03:05:55.753Z,77.12
2019-01-24T03:08:26.868Z,77.04
2019-01-24T03:10:57.750Z,77.05
2019-01-24T03:13:29.879Z,77.09
2019-01-24T03:16:01.053Z,77.08
2019-01-24T03:18:33.229Z,77.00
2019-01-24T03:21:03.935Z,77.07
2019-01-24T03:23:34.598Z,77.20
2019-01-24T03:26:09.317Z,77.17
2019-01-24T03:28:40.832Z,77.19
2019-01-24T03:31:11.904Z,77.15
2019-01-24T03:33:43.185Z,77.22
2019-01-24T03:36:15.231Z,77.23
2019-01-24T03:38:46.956Z,77.28
2019-01-24T03:41:18.575Z,77.24
2019-01-24T03:43:50.067Z,77.22
2019-01-24T03:46:21.742Z,77.27
2019-01-24T03:48:53.086Z,77.31
2019-01-24T03:51:24.012Z,77.31
2019-01-24T03:53:55.802Z,77.40
2019-01-24T03:56:28.010Z,77.50
2019-01-24T03:58:58.976Z,77.49
2019-01-24T04:01:29.993Z,77.43
2019-01-24T04:04:01.249Z,77.32
2019-01-24T04:06:32.548Z,77.40
2019-01-24T04:09:05.335Z,77.30
2019-01-24T04:11:36.589Z,77.41
2019-01-24T04:14:07.607Z,77.54
2019-01-24T04:16:38.959Z,77.65
2019-01-24T04:19:09.648Z,77.55
2019-01-24T04:21:40.313Z,77.65
2019-01-24T04:24:10.986Z,77.63
2019-01-24T04:26:42.527Z,77.62
2019-01-24T04:29:13.467Z,77.65
2019-01-24T04:31:44.459Z,77.74
2019-01-24T04:34:15.435Z,77.72
2019-01-24T04:36:49.515Z,77.79
2019-01-24T04:39:21.443Z,77.85
2019-01-24T04:41:52.396Z,77.75
2019-01-24T04:44:23.376Z,77.86
2019-01-24T04:46:54.390Z,77.93
2019-01-24T04:49:25.735Z,77.95
2019-01-24T04:51:57.705Z,77.93
2019-01-24T04:54:28.737Z,77.94
2019-01-24T04:56:59.386Z,77.93
2019-01-24T04:59:30.007Z,77.96
2019-01-24T05:02:00.647Z,77.74
2019-01-24T05:04:31.271Z,77.67
2019-01-24T05:07:02.206Z,77.66
2019-01-24T05:09:33.203Z,77.78
2019-01-24T05:12:04.332Z,77.72
2019-01-24T05:14:35.331Z,77.71
2019-01-24T05:17:06.406Z,77.61
2019-01-24T05:19:37.808Z,77.60
2019-01-24T05:22:08.714Z,77.61
2019-01-24T05:24:40.082Z,77.58
2019-01-24T05:27:11.072Z,77.65
2019-01-24T05:29:42.368Z,77.58
2019-01-24T05:32:13.815Z,77.43
2019-01-24T05:34:47.159Z,77.43
2019-01-24T05:37:17.944Z,77.65
2019-01-24T05:39:49.071Z,77.67
2019-01-24T05:42:21.090Z,77.67
2019-01-24T05:44:52.688Z,77.62
2019-01-24T05:47:24.399Z,77.71
2019-01-24T05:49:55.417Z,77.63
2019-01-24T05:52:27.146Z,77.58
2019-01-24T05:54:58.215Z,77.59
2019-01-24T05:57:30.634Z,77.61
2019-01-24T06:00:09.427Z,77.51
2019-01-24T06:02:44.502Z,77.55
2019-01-24T06:05:15.923Z,77.64
2019-01-24T06:07:49.447Z,77.66
2019-01-24T06:10:20.409Z,77.61
2019-01-24T06:12:52.599Z,77.52
2019-01-24T06:15:23.328Z,77.65
2019-01-24T06:17:54.274Z,77.64
2019-01-24T06:20:25.547Z,77.65
2019-01-24T06:22:57.935Z,77.63
2019-01-24T06:25:28.675Z,77.59
2019-01-24T06:27:59.713Z,77.67
2019-01-24T06:30:30.646Z,77.67
2019-01-24T06:33:01.227Z,77.68
2019-01-24T06:35:32.129Z,77.66
2019-01-24T06:38:02.741Z,77.81
2019-01-24T06:40:33.577Z,77.64
2019-01-24T06:43:04.183Z,77.72
2019-01-24T06:45:35.095Z,77.63
2019-01-24T06:48:05.943Z,77.63
2019-01-24T06:50:37.329Z,77.46
2019-01-24T06:53:13.069Z,77.58
2019-01-24T06:55:44.028Z,77.35
2019-01-24T06:58:15.264Z,77.33
2019-01-24T07:00:46.253Z,77.37
2019-01-24T07:03:17.206Z,77.31
2019-01-24T07:05:47.844Z,77.10
2019-01-24T07:08:18.742Z,77.14
2019-01-24T07:10:49.456Z,76.88
2019-01-24T07:13:20.218Z,77.10
2019-01-24T07:15:51.223Z,76.83
2019-01-24T07:18:22.181Z,77.03
2019-01-24T07:20:53.076Z,76.82
2019-01-24T07:23:24.327Z,76.59
2019-01-24T07:25:55.277Z,76.44
2019-01-24T07:28:25.939Z,76.22
2019-01-24T07:30:56.601Z,76.31
2019-01-24T07:33:27.935Z,76.29
2019-01-24T07:36:02.210Z,76.31
2019-01-24T07:38:35.237Z,76.08
2019-01-24T07:41:06.053Z,76.01
2019-01-24T07:43:37.011Z,75.94
2019-01-24T07:46:08.201Z,75.55
2019-01-24T07:48:38.876Z,75.41
2019-01-24T07:51:09.934Z,75.44
2019-01-24T07:53:40.847Z,75.52
2019-01-24T07:56:11.438Z,75.28
2019-01-24T07:58:41.985Z,75.30
2019-01-24T08:01:12.520Z,75.27
2019-01-24T08:03:43.168Z,75.04
2019-01-24T08:06:13.727Z,74.86
2019-01-24T08:08:44.374Z,75.02
2019-01-24T08:11:14.960Z,74.34
2019-01-24T08:13:46.133Z,74.38
2019-01-24T08:16:17.055Z,74.19
2019-01-24T08:18:48.024Z,74.03
2019-01-24T08:21:18.668Z,73.70
2019-01-24T08:23:49.602Z,73.70
2019-01-24T08:26:20.560Z,73.73
2019-01-24T08:28:52.008Z,73.48
2019-01-24T08:31:22.675Z,73.43
2019-01-24T08:33:53.950Z,73.34
2019-01-24T08:36:25.179Z,73.09
2019-01-24T08:38:55.842Z,73.04
2019-01-24T08:41:26.603Z,73.53
2019-01-24T08:43:58.246Z,73.04
2019-01-24T08:46:28.861Z,72.75
2019-01-24T08:48:59.715Z,72.53
2019-01-24T08:51:30.533Z,72.48
2019-01-24T08:54:01.232Z,72.51
2019-01-24T08:56:32.039Z,72.59
2019-01-24T08:59:03.629Z,72.54
2019-01-24T09:01:34.352Z,72.29
2019-01-24T09:04:05.440Z,72.34
2019-01-24T09:06:36.356Z,72.70
2019-01-24T09:09:10.709Z,72.62
2019-01-24T09:11:41.507Z,72.54
2019-01-24T09:14:12.644Z,72.74
2019-01-24T09:16:43.310Z,72.45
2019-01-24T09:19:13.986Z,72.42
2019-01-24T09:21:44.822Z,73.04
2019-01-24T09:24:15.773Z,72.67
2019-01-24T09:26:46.905Z,72.69
2019-01-24T09:29:17.604Z,72.72
2019-01-24T09:31:48.249Z,72.75
2019-01-24T09:34:19.785Z,72.89
2019-01-24T09:36:50.902Z,72.52
2019-01-24T09:39:21.617Z,72.66
2019-01-24T09:41:52.389Z,72.67
2019-01-24T09:44:23.015Z,72.86
2019-01-24T09:46:53.853Z,72.64
2019-01-24T09:49:25.220Z,72.75
2019-01-24T09:51:56.106Z,72.75
2019-01-24T09:54:27.179Z,73.02
2019-01-24T09:56:57.847Z,73.01
2019-01-24T09:59:28.802Z,73.13
2019-01-24T10:01:59.418Z,73.22
2019-01-24T10:04:30.109Z,73.39
2019-01-24T10:07:00.789Z,73.08
2019-01-24T10:09:31.426Z,73.21
2019-01-24T10:12:02.105Z,73.12
2019-01-24T10:14:32.995Z,73.11
2019-01-24T10:17:03.612Z,72.75
2019-01-24T10:19:34.281Z,72.83
2019-01-24T10:22:06.296Z,72.78
2019-01-24T10:24:36.930Z,72.78
2019-01-24T10:27:07.974Z,72.17
2019-01-24T10:29:38.912Z,72.23
2019-01-24T10:32:09.537Z,71.97
2019-01-24T10:34:40.280Z,72.46
2019-01-24T10:37:11.155Z,72.28
2019-01-24T10:39:42.064Z,71.85
2019-01-24T10:42:12.744Z,72.22
2019-01-24T10:44:43.654Z,72.07
2019-01-24T10:47:14.271Z,71.80
2019-01-24T10:52:38.600Z,71.83
2019-01-24T10:55:01.148Z,71.38
2019-01-24T10:57:32.178Z,71.45
2019-01-24T11:00:02.999Z,71.26
2019-01-24T11:02:34.096Z,70.62
2019-01-24T11:05:05.507Z,70.99
2019-01-24T11:07:36.689Z,71.08
2019-01-24T11:10:08.597Z,71.36
2019-01-24T11:12:39.786Z,71.40
2019-01-24T11:15:15.851Z,71.62
2019-01-24T11:17:47.298Z,71.37
2019-01-24T11:20:19.759Z,71.08
2019-01-24T11:22:51.038Z,70.92
2019-01-24T11:25:23.173Z,71.09
2019-01-24T11:27:54.835Z,70.91
2019-01-24T11:30:28.887Z,70.67
2019-01-24T11:33:00.165Z,71.00
2019-01-24T11:35:33.425Z,70.88
2019-01-24T11:38:04.400Z,70.18
2019-01-24T11:40:35.133Z,70.44
2019-01-24T11:43:06.440Z,70.38
2019-01-24T11:45:43.097Z,70.69
2019-01-24T11:48:14.284Z,70.70
2019-01-24T11:50:45.281Z,70.35
2019-01-24T11:53:16.734Z,70.16
2019-01-24T11:55:47.521Z,70.18
2019-01-24T11:58:18.560Z,70.49
2019-01-24T12:00:54.897Z,70.43
2019-01-24T12:03:26.458Z,70.37
2019-01-24T12:05:57.590Z,70.86
2019-01-24T12:08:28.938Z,70.37
2019-01-24T12:11:00.616Z,70.23
2019-01-24T12:13:31.629Z,69.87
2019-01-24T12:16:04.018Z,69.87
2019-01-24T12:18:34.729Z,69.93
2019-01-24T12:21:05.812Z,70.14
2019-01-24T12:23:37.615Z,70.07
2019-01-24T12:26:09.183Z,70.08
2019-01-24T12:28:40.663Z,70.12
2019-01-24T12:31:11.827Z,69.25
2019-01-24T12:33:43.267Z,69.33
2019-01-24T12:36:14.352Z,69.49
2019-01-24T12:38:45.813Z,68.92
2019-01-24T12:41:17.236Z,69.81
2019-01-24T12:43:48.749Z,69.95
2019-01-24T12:46:20.060Z,69.58
2019-01-24T12:48:51.556Z,69.69
2019-01-24T12:51:22.600Z,69.69
2019-01-24T12:53:53.679Z,69.28
2019-01-24T12:56:24.682Z,69.72
2019-01-24T12:58:55.270Z,69.90
2019-01-24T13:01:26.115Z,69.75
2019-01-24T13:03:57.515Z,69.58
2019-01-24T13:06:28.844Z,69.89
2019-01-24T13:09:00.482Z,68.76
2019-01-24T13:11:32.222Z,68.16
2019-01-24T13:14:03.278Z,68.71
2019-01-24T13:16:34.746Z,69.57
2019-01-24T13:19:05.906Z,68.81
2019-01-24T13:21:36.967Z,69.47
2019-01-24T13:24:08.059Z,69.12
2019-01-24T13:26:39.457Z,69.01
2019-01-24T13:29:10.559Z,69.62
2019-01-24T13:31:41.672Z,69.40
2019-01-24T13:34:12.379Z,69.00
2019-01-24T13:36:43.052Z,69.00
2019-01-24T13:39:13.814Z,69.47
2019-01-24T13:41:44.649Z,68.80
2019-01-24T13:44:15.596Z,69.29
2019-01-24T13:46:46.673Z,69.01
2019-01-24T13:49:17.358Z,69.13
2019-01-24T13:51:48.404Z,69.52
2019-01-24T13:54:19.443Z,69.62
2019-01-24T13:56:50.174Z,70.35
2019-01-24T13:59:20.842Z,69.70
2019-01-24T14:01:51.993Z,69.68
2019-01-24T14:04:41.606Z,69.76
2019-01-24T14:07:13.315Z,69.99
2019-01-24T14:09:44.478Z,69.70
2019-01-24T14:12:16.119Z,69.54
2019-01-24T14:14:47.264Z,69.85
2019-01-24T14:17:18.665Z,69.92
2019-01-24T14:19:50.016Z,69.52
2019-01-24T14:22:21.771Z,70.04
2019-01-24T14:24:53.124Z,69.73
2019-01-24T14:27:24.211Z,69.51
2019-01-24T14:29:55.835Z,69.48
2019-01-24T14:32:26.996Z,68.92
2019-01-24T14:34:58.007Z,69.44
2019-01-24T14:37:28.854Z,67.81
2019-01-24T14:39:59.942Z,68.09
2019-01-24T14:42:30.963Z,68.46
2019-01-24T14:45:01.930Z,68.70
2019-01-24T14:47:32.689Z,68.55
2019-01-24T14:50:03.354Z,68.43
2019-01-24T14:52:34.161Z,68.18
2019-01-24T14:55:05.242Z,67.81
2019-01-24T14:57:36.256Z,68.01
2019-01-24T15:00:16.775Z,68.49
2019-01-24T15:02:47.837Z,68.24
2019-01-24T15:05:19.174Z,67.16
2019-01-24T15:07:50.267Z,67.15
2019-01-24T15:10:21.391Z,67.00
2019-01-24T15:12:52.841Z,67.87
2019-01-24T15:15:24.200Z,67.37
2019-01-24T15:17:55.674Z,68.10
2019-01-24T15:20:26.734Z,66.20
2019-01-24T15:23:00.277Z,66.30
2019-01-24T15:25:31.328Z,66.90
2019-01-24T15:28:02.355Z,67.16
2019-01-24T15:30:33.542Z,67.65
2019-01-24T15:33:04.199Z,67.39
2019-01-24T15:35:35.786Z,68.11
2019-01-24T15:38:06.477Z,68.66
2019-01-24T15:40:37.470Z,68.51
2019-01-24T15:43:08.496Z,68.79
2019-01-24T15:45:39.546Z,68.47
2019-01-24T15:48:10.649Z,68.80
2019-01-24T15:50:41.643Z,68.09
2019-01-24T15:53:13.041Z,68.04
2019-01-24T15:55:44.083Z,67.92
2019-01-24T15:58:15.397Z,67.86
2019-01-24T16:00:46.458Z,68.03
2019-01-24T16:03:17.689Z,68.19
2019-01-24T16:05:49.103Z,68.36
2019-01-24T16:08:20.397Z,67.92
2019-01-24T16:10:51.099Z,68.32
2019-01-24T16:13:21.793Z,69.12
2019-01-24T16:15:52.470Z,68.01
2019-01-24T16:18:23.051Z,68.62
2019-01-24T16:20:54.015Z,68.04
2019-01-24T16:23:25.442Z,68.37
2019-01-24T16:25:57.759Z,68.37
2019-01-24T16:28:28.877Z,68.81
2019-01-24T16:31:00.180Z,68.50
2019-01-24T16:33:31.235Z,68.78
2019-01-24T16:36:02.284Z,68.45
2019-01-24T16:38:33.663Z,69.39
2019-01-24T16:41:04.717Z,69.82
2019-01-24T16:43:35.716Z,69.50
2019-01-24T16:46:06.994Z,70.15
2019-01-24T16:48:38.010Z,70.38
2019-01-24T16:51:09.174Z,70.07
2019-01-24T16:53:40.557Z,70.26
2019-01-24T16:56:11.574Z,70.41
2019-01-24T16:58:42.601Z,70.14
2019-01-24T17:01:21.271Z,70.13
2019-01-24T17:03:52.314Z,70.15
2019-01-24T17:06:23.711Z,70.97
2019-01-24T17:08:56.145Z,71.13
2019-01-24T17:11:27.019Z,71.32
2019-01-24T17:13:58.130Z,70.92
2019-01-24T17:16:29.506Z,71.19
2019-01-24T17:19:00.506Z,70.95
2019-01-24T17:21:31.871Z,71.19
2019-01-24T17:24:03.227Z,71.10
2019-01-24T17:26:34.759Z,71.02
2019-01-24T17:29:06.007Z,70.97
2019-01-24T17:31:37.097Z,71.19
2019-01-24T17:34:08.195Z,71.32
2019-01-24T17:36:39.225Z,71.06
2019-01-24T17:39:12.808Z,70.72
2019-01-24T17:41:43.829Z,71.15
2019-01-24T17:44:15.225Z,70.62
2019-01-24T17:46:46.313Z,70.69
2019-01-24T17:49:17.361Z,71.29
2019-01-24T17:51:48.409Z,71.23
2019-01-24T17:54:20.147Z,71.36
2019-01-24T17:56:50.870Z,71.53
2019-01-24T17:59:21.553Z,71.65
2019-01-24T18:01:52.166Z,71.21
2019-01-24T18:04:22.870Z,71.81
2019-01-24T18:06:53.490Z,71.49
2019-01-24T18:09:24.638Z,72.01
2019-01-24T18:11:55.703Z,71.43
2019-01-24T18:14:26.739Z,71.85
2019-01-24T18:16:57.823Z,71.90
2019-01-24T18:19:29.342Z,71.82
2019-01-24T18:22:00.031Z,71.65
2019-01-24T18:24:31.080Z,71.59
2019-01-24T18:27:02.143Z,71.87
2019-01-24T18:29:33.301Z,71.97
2019-01-24T18:32:04.628Z,72.05
2019-01-24T18:34:35.562Z,71.81
2019-01-24T18:37:06.525Z,71.98
2019-01-24T18:39:37.249Z,71.99
2019-01-24T18:42:08.050Z,71.83
2019-01-24T18:44:39.237Z,72.03
2019-01-24T18:47:10.073Z,72.15
2019-01-24T18:49:41.436Z,72.67
2019-01-24T18:52:12.806Z,72.25
2019-01-24T18:54:44.215Z,72.10
2019-01-24T18:57:16.651Z,72.41
2019-01-24T18:59:47.648Z,72.18
2019-01-24T19:02:18.847Z,72.69
2019-01-24T19:04:50.275Z,72.22
2019-01-24T19:07:21.367Z,72.55
2019-01-24T19:09:52.159Z,72.38
2019-01-24T19:12:22.848Z,72.22
2019-01-24T19:14:53.496Z,72.44
2019-01-24T19:17:24.220Z,72.37
2019-01-24T19:19:55.595Z,72.15
2019-01-24T19:22:26.736Z,72.54
2019-01-24T19:24:57.816Z,72.42
2019-01-24T19:27:28.915Z,72.72
2019-01-24T19:29:59.963Z,72.37
2019-01-24T19:32:31.380Z,72.06
2019-01-24T19:35:02.406Z,71.98
2019-01-24T19:37:33.451Z,72.34
2019-01-24T19:40:05.121Z,72.17
2019-01-24T19:42:36.456Z,72.04
2019-01-24T19:45:12.475Z,72.00
2019-01-24T19:47:43.933Z,71.80
2019-01-24T19:50:21.587Z,71.76
2019-01-24T19:52:52.391Z,71.88
2019-01-24T19:55:23.152Z,72.31
2019-01-24T19:57:54.333Z,72.15
2019-01-24T20:00:34.633Z,72.13
2019-01-24T20:03:06.037Z,72.00
2019-01-24T20:05:37.437Z,72.14
2019-01-24T20:08:08.589Z,72.30
2019-01-24T20:10:39.756Z,72.16
2019-01-24T20:13:10.825Z,72.20
2019-01-24T20:15:42.296Z,72.02
2019-01-24T20:18:13.425Z,72.31
2019-01-24T20:20:44.545Z,72.43
2019-01-24T20:23:17.520Z,72.09
2019-01-24T20:25:48.607Z,71.67
2019-01-24T20:28:19.345Z,71.80
2019-01-24T20:30:50.204Z,71.96
2019-01-24T20:33:21.041Z,71.68
2019-01-24T20:35:58.458Z,71.55
2019-01-24T20:38:29.593Z,71.65
2019-01-24T20:41:00.708Z,72.16
2019-01-24T20:43:35.416Z,72.31
2019-01-24T20:46:03.920Z,72.03
2019-01-24T20:48:34.787Z,72.21
2019-01-24T20:51:05.561Z,71.91
2019-01-24T20:53:36.297Z,72.11
2019-01-24T20:56:07.399Z,71.79
2019-01-24T20:58:39.213Z,72.06
2019-01-24T21:01:10.794Z,71.96
2019-01-24T21:03:42.231Z,72.54
2019-01-24T21:06:13.350Z,72.34
2019-01-24T21:08:45.368Z,71.92
2019-01-24T21:11:16.894Z,72.11
2019-01-24T21:13:47.963Z,72.06
2019-01-24T21:16:19.415Z,72.20
2019-01-24T21:18:50.867Z,72.58
2019-01-24T21:21:21.977Z,72.44
2019-01-24T21:23:53.915Z,72.19
2019-01-24T21:26:25.053Z,72.68
2019-01-24T21:28:56.085Z,72.64
2019-01-24T21:31:27.030Z,72.61
2019-01-24T21:33:58.772Z,72.50
2019-01-24T21:36:29.880Z,72.34
2019-01-24T21:39:04.367Z,72.45
2019-01-24T21:41:35.745Z,72.26
2019-01-24T21:44:08.308Z,72.13
2019-01-24T21:46:39.435Z,72.57
2019-01-24T21:49:10.325Z,72.95
2019-01-24T21:51:41.677Z,72.35
2019-01-24T21:54:14.820Z,73.00
2019-01-24T21:56:49.435Z,72.79
2019-01-24T21:59:20.682Z,72.81
2019-01-24T22:01:52.244Z,72.82
2019-01-24T22:04:22.955Z,72.91
2019-01-24T22:06:53.710Z,72.83
2019-01-24T22:09:29.155Z,72.89
2019-01-24T22:11:57.315Z,73.10
2019-01-24T22:14:28.430Z,73.01
2019-01-24T22:16:59.913Z,73.16
2019-01-24T22:19:31.637Z,73.45
2019-01-24T22:22:03.094Z,73.26
2019-01-24T22:24:34.576Z,73.42
2019-01-24T22:27:05.659Z,73.51
2019-01-24T22:29:37.084Z,73.41
2019-01-24T22:32:08.310Z,73.34
2019-01-24T22:34:40.155Z,73.52
2019-01-24T22:37:11.285Z,73.56
2019-01-24T22:39:43.079Z,73.76
2019-01-24T22:42:14.189Z,73.76
2019-01-24T22:44:45.183Z,73.79
2019-01-24T22:47:15.960Z,73.76
2019-01-24T22:49:46.777Z,73.61
2019-01-24T22:52:17.452Z,73.92
2019-01-24T22:54:48.698Z,74.12
2019-01-24T22:57:19.795Z,73.76
2019-01-24T22:59:50.839Z,74.00
2019-01-24T23:02:27.416Z,74.02
2019-01-24T23:04:58.525Z,74.05
2019-01-24T23:07:29.599Z,74.36
2019-01-24T23:10:01.767Z,74.06
2019-01-24T23:12:33.276Z,74.33
2019-01-24T23:15:04.715Z,74.17
2019-01-24T23:17:36.099Z,73.62
2019-01-24T23:20:08.771Z,74.22
2019-01-24T23:22:39.823Z,74.31
2019-01-24T23:25:10.645Z,74.10
2019-01-24T23:27:41.390Z,74.17
2019-01-24T23:30:12.517Z,74.10
2019-01-24T23:32:43.624Z,73.94
2019-01-24T23:35:15.060Z,73.97
2019-01-24T23:37:52.348Z,74.12
2019-01-24T23:40:19.604Z,74.00
2019-01-24T23:42:50.641Z,74.08
2019-01-24T23:45:21.745Z,74.18
2019-01-24T23:47:52.829Z,74.10
2019-01-24T23:50:24.169Z,73.89
2019-01-24T23:52:55.369Z,73.97
2019-01-24T23:55:26.833Z,73.92
2019-01-24T23:57:58.165Z,74.18
